Time;durP1;ratioP1;P1;durP2;ratioP2;P2;SDS_P1;SDS_P2;PMS_P1;PMS_P2;Temp;Humidity;BMP_temperature;BMP_pressure;BME280_temperature;BME280_humidity;BME280_pressure;Samples;Min_cycle;Max_cycle;Signal;HPM_P1;HPM_P2
2023/08/21 00:01:33;;;;;;;12.10;8.30;;;;;;;-143.21;54.46;71451.56;5071078;28;20572;-78
2023/08/21 00:04:00;;;;;;;17.13;9.23;;;;;;;-143.21;55.31;71447.59;5070641;28;20197;-81
2023/08/21 00:06:27;;;;;;;12.27;8.02;;;;;;;-143.21;55.04;71447.59;5070644;28;20205;-81
2023/08/21 00:08:54;;;;;;;14.63;8.48;;;;;;;-143.21;55.49;71447.59;5071163;28;20286;-81
2023/08/21 00:11:22;;;;;;;14.75;8.52;;;;;;;-143.21;55.16;71451.56;5071032;28;20203;-81
2023/08/21 00:13:49;;;;;;;15.60;8.43;;;;;;;-143.21;54.78;71443.63;5070699;28;20197;-80
2023/08/21 00:16:19;;;;;;;13.00;8.77;;;;;;;-143.21;54.99;71455.53;5071016;28;20201;-80
2023/08/21 00:18:46;;;;;;;14.60;7.93;;;;;;;-143.21;55.30;71455.53;5070575;28;20580;-80
2023/08/21 00:21:13;;;;;;;15.55;7.78;;;;;;;-143.21;55.11;71473.38;5070548;28;20656;-80
2023/08/21 00:23:40;;;;;;;13.43;7.25;;;;;;;-143.21;55.25;71481.28;5070928;28;20250;-80
2023/08/21 00:26:07;;;;;;;13.63;8.27;;;;;;;-143.21;55.85;71473.38;5070457;28;20205;-80
2023/08/21 00:28:35;;;;;;;10.50;7.78;;;;;;;-143.21;55.87;71469.41;5070668;28;20217;-80
2023/08/21 00:31:02;;;;;;;14.38;7.80;;;;;;;-143.21;55.86;71473.38;5070650;28;20690;-80
2023/08/21 00:33:29;;;;;;;14.38;7.88;;;;;;;-143.21;56.06;71479.31;5070737;28;20575;-80
2023/08/21 00:35:56;;;;;;;10.02;7.60;;;;;;;-143.21;56.11;71481.28;5070521;28;20197;-80
2023/08/21 00:38:23;;;;;;;12.25;8.15;;;;;;;-143.21;55.95;71475.34;5070706;28;20189;-80
2023/08/21 00:40:50;;;;;;;9.57;7.00;;;;;;;-143.21;56.22;71475.34;5070663;28;20750;-80
2023/08/21 00:43:17;;;;;;;11.52;7.95;;;;;;;-143.21;56.21;71471.38;5070902;28;20201;-80
2023/08/21 00:45:47;;;;;;;11.77;8.13;;;;;;;-143.21;55.98;71463.44;5070653;28;20242;-80
2023/08/21 00:48:15;;;;;;;15.95;7.60;;;;;;;-143.21;56.17;71471.38;5070204;28;20603;-80
2023/08/21 00:50:43;;;;;;;10.93;7.72;;;;;;;-143.21;56.29;71473.38;5070006;28;20656;-80
2023/08/21 00:53:11;;;;;;;13.27;7.45;;;;;;;-143.21;55.93;71479.31;5070065;28;20197;-80
2023/08/21 00:55:39;;;;;;;10.45;7.80;;;;;;;-143.21;55.91;71493.19;5070566;28;20654;-80
2023/08/21 00:58:06;;;;;;;11.82;7.35;;;;;;;-143.21;56.40;71520.94;5070795;28;20680;-80
2023/08/21 01:00:35;;;;;;;9.10;7.30;;;;;;;-143.21;56.75;71532.84;5070857;28;20208;-80
2023/08/21 01:03:03;;;;;;;19.23;7.50;;;;;;;-143.21;57.31;71558.63;5051819;28;20332;-80
2023/08/21 01:05:30;;;;;;;9.90;7.95;;;;;;;-143.21;57.26;71554.66;5050435;28;20194;-79
2023/08/21 01:08:02;;;;;;;12.27;7.55;;;;;;;-143.21;57.59;71568.53;5050485;28;20664;-79
2023/08/21 01:10:40;;;;;;;14.90;7.50;;;;;;;-143.21;57.69;71572.50;5053238;28;20186;-79
2023/08/21 01:13:14;;;;;;;9.52;7.40;;;;;;;-143.21;58.05;71584.41;5054136;28;20273;-79
2023/08/21 01:15:42;;;;;;;12.45;7.03;;;;;;;-143.21;58.00;71588.38;5054497;28;20179;-80
2023/08/21 01:18:11;;;;;;;10.50;7.60;;;;;;;-143.21;58.43;71594.31;5053986;28;20198;-79
2023/08/21 01:20:39;;;;;;;10.35;6.95;;;;;;;-143.21;58.43;71594.31;5054348;28;20186;-79
2023/08/21 01:23:06;;;;;;;13.85;7.55;;;;;;;-143.21;59.05;71588.38;5053524;28;20197;-79
2023/08/21 01:25:35;;;;;;;10.02;8.07;;;;;;;-143.21;58.72;71588.38;5053459;28;20197;-80
2023/08/21 01:28:02;;;;;;;12.57;7.78;;;;;;;-143.21;58.59;71594.31;5053845;28;20304;-79
2023/08/21 01:30:35;;;;;;;11.73;7.75;;;;;;;-143.21;59.18;71598.28;5054283;28;20251;-78
2023/08/21 01:33:07;;;;;;;13.40;7.60;;;;;;;-143.21;58.88;71590.34;5072635;28;20727;-78
2023/08/21 01:35:36;;;;;;;11.93;7.70;;;;;;;-143.21;58.96;71588.38;5073897;28;20194;-79
2023/08/21 01:38:03;;;;;;;9.73;7.47;;;;;;;-143.21;58.34;71586.38;5053405;28;20194;-79
2023/08/21 01:40:30;;;;;;;10.40;7.57;;;;;;;-143.21;58.66;71582.41;5053570;28;20202;-79
2023/08/21 01:42:58;;;;;;;10.25;7.50;;;;;;;-143.21;58.60;71572.50;5066789;28;20209;-80
2023/08/21 01:45:25;;;;;;;11.18;7.25;;;;;;;-143.21;58.79;71566.56;5073992;28;20254;-79
2023/08/21 01:47:52;;;;;;;10.60;7.35;;;;;;;-143.21;58.66;71562.59;5074742;28;20228;-79
2023/08/21 01:50:19;;;;;;;11.43;7.32;;;;;;;-143.21;58.61;71552.69;5073367;28;20225;-79
2023/08/21 01:52:46;;;;;;;10.88;7.80;;;;;;;-143.21;58.63;71560.59;5073339;28;20262;-79
2023/08/21 01:55:13;;;;;;;10.57;7.30;;;;;;;-143.21;58.91;71568.53;5073469;28;20225;-80
2023/08/21 01:57:40;;;;;;;17.90;7.80;;;;;;;-143.21;58.64;71562.59;5073756;28;20197;-80
2023/08/21 02:00:09;;;;;;;11.65;7.95;;;;;;;-143.21;58.39;71556.63;5073261;28;20259;-80
2023/08/21 02:02:36;;;;;;;12.73;7.88;;;;;;;-143.21;57.97;71568.53;5073421;28;20683;-80
2023/08/21 02:05:03;;;;;;;14.98;8.05;;;;;;;-143.21;58.64;71574.47;5073240;28;20205;-80
2023/08/21 02:07:30;;;;;;;11.18;7.43;;;;;;;-143.21;58.72;71576.47;5073141;28;20193;-80
2023/08/21 02:09:57;;;;;;;11.35;7.82;;;;;;;-143.21;58.20;71574.47;5073501;28;20216;-80
2023/08/21 02:12:24;;;;;;;11.48;7.53;;;;;;;-143.21;58.77;71582.41;5073269;28;20197;-80
2023/08/21 02:14:51;;;;;;;11.32;7.70;;;;;;;-143.21;58.13;71578.44;5072828;28;20200;-80
2023/08/21 02:17:19;;;;;;;16.17;7.53;;;;;;;-143.21;59.10;71584.41;5071789;28;20202;-80
2023/08/21 02:19:46;;;;;;;12.32;7.45;;;;;;;-143.21;59.28;71586.38;5072514;28;20280;-80
2023/08/21 02:22:12;;;;;;;9.18;7.22;;;;;;;-143.21;59.37;71576.47;5072019;28;20198;-80
2023/08/21 02:24:39;;;;;;;16.27;6.97;;;;;;;-143.21;59.36;71574.47;5073073;28;20182;-80
2023/08/21 02:27:06;;;;;;;12.68;8.02;;;;;;;-143.21;59.29;71576.47;5073557;28;20198;-80
2023/08/21 02:29:33;;;;;;;13.95;7.72;;;;;;;-143.21;59.28;71574.47;5072459;28;20229;-80
2023/08/21 02:31:59;;;;;;;12.50;8.40;;;;;;;-143.21;59.42;71580.44;5072649;28;20212;-80
2023/08/21 02:34:28;;;;;;;13.25;8.70;;;;;;;-143.21;59.49;71598.28;5073054;28;20217;-80
2023/08/21 02:36:54;;;;;;;13.05;9.35;;;;;;;-143.21;59.76;71608.19;5072861;28;20198;-81
2023/08/21 02:39:21;;;;;;;16.85;9.93;;;;;;;-143.21;60.36;71624.06;5072962;28;20672;-81
2023/08/21 02:41:48;;;;;;;12.63;8.40;;;;;;;-143.21;61.01;71631.97;5072862;28;20193;-81
2023/08/21 02:44:15;;;;;;;15.93;9.20;;;;;;;-143.21;61.15;71639.91;5073139;28;20678;-81
2023/08/21 02:46:42;;;;;;;15.63;9.50;;;;;;;-143.21;61.24;71637.94;5072672;28;20197;-81
2023/08/21 02:49:08;;;;;;;15.70;9.45;;;;;;;-143.21;61.24;71633.97;5071895;28;20217;-80
2023/08/21 02:51:37;;;;;;;14.48;9.57;;;;;;;-143.21;60.89;71628.00;5072577;28;20189;-79
2023/08/21 02:54:03;;;;;;;14.55;9.45;;;;;;;-143.21;61.10;71631.97;5072134;28;20237;-79
2023/08/21 02:56:30;;;;;;;14.80;10.23;;;;;;;-143.21;61.09;71643.88;5072354;28;20196;-79
2023/08/21 02:58:57;;;;;;;23.40;10.82;;;;;;;-143.21;60.88;71639.91;5071874;28;20201;-77
2023/08/21 03:01:24;;;;;;;15.48;10.07;;;;;;;-143.21;61.16;71643.88;5071879;28;20209;-77
2023/08/21 03:03:51;;;;;;;18.48;10.65;;;;;;;-143.21;61.23;71645.88;5071439;28;20193;-78
2023/08/21 03:06:18;;;;;;;16.55;10.10;;;;;;;-143.21;61.25;71645.88;5072129;28;20228;-80
2023/08/21 03:08:46;;;;;;;18.10;10.30;;;;;;;-143.21;60.98;71637.94;5072013;28;20274;-80
2023/08/21 03:11:13;;;;;;;16.38;11.25;;;;;;;-143.21;60.84;71647.84;5072008;28;20539;-79
2023/08/21 03:13:41;;;;;;;16.33;10.48;;;;;;;-143.21;61.07;71647.84;5072287;28;20258;-78
2023/08/21 03:16:07;;;;;;;29.55;10.55;;;;;;;-143.21;61.04;71653.78;5071718;28;20200;-79
2023/08/21 03:18:54;;;;;;;19.20;11.10;;;;;;;-143.21;61.18;71661.72;5071633;28;20591;-79
2023/08/21 03:21:22;;;;;;;18.50;11.30;;;;;;;-143.21;61.46;71669.66;5072364;28;20637;-79
2023/08/21 03:23:51;;;;;;;19.25;11.38;;;;;;;-143.21;61.28;71671.63;5071652;28;20193;-78
2023/08/21 03:26:18;;;;;;;21.02;11.30;;;;;;;-143.21;61.39;71673.63;5071452;28;20197;-78
2023/08/21 03:28:45;;;;;;;20.13;11.23;;;;;;;-143.21;61.42;71677.59;5071016;28;20224;-78
2023/08/21 03:31:12;;;;;;;19.20;11.05;;;;;;;-143.21;61.32;71681.56;5071797;28;20201;-79
2023/08/21 03:33:38;;;;;;;20.73;11.77;;;;;;;-143.21;61.46;71687.50;5070208;28;20194;-79
2023/08/21 03:36:05;;;;;;;15.15;10.55;;;;;;;-143.21;61.57;71703.34;5071948;28;20201;-78
2023/08/21 03:38:32;;;;;;;19.58;10.60;;;;;;;-143.21;62.05;71701.38;5058839;28;20738;-79
2023/08/21 03:41:00;;;;;;;15.77;10.20;;;;;;;-143.21;62.31;71705.34;5050770;28;20688;-78
2023/08/21 03:43:27;;;;;;;18.23;10.57;;;;;;;-143.21;62.01;71695.44;5064839;28;20216;-78
2023/08/21 03:45:54;;;;;;;18.92;10.52;;;;;;;-143.21;61.85;71697.41;5071261;28;20706;-79
2023/08/21 03:48:22;;;;;;;20.75;12.65;;;;;;;-143.21;61.89;71703.34;5070619;28;20222;-79
2023/08/21 03:50:50;;;;;;;32.75;14.48;;;;;;;-143.21;61.78;71701.38;5071054;28;20201;-79
2023/08/21 03:53:17;;;;;;;29.45;15.65;;;;;;;-143.21;62.55;71725.16;5072301;28;20197;-79
2023/08/21 03:55:43;;;;;;;24.85;14.80;;;;;;;-143.21;62.88;71735.09;5070714;28;20762;-78
2023/08/21 03:58:11;;;;;;;27.38;15.07;;;;;;;-143.21;63.02;71737.06;5071378;28;20251;-77
2023/08/21 04:00:38;;;;;;;27.65;14.40;;;;;;;-143.21;63.49;71741.03;5071610;28;20200;-81
2023/08/21 04:03:05;;;;;;;21.10;14.50;;;;;;;-143.21;63.14;71741.03;5070816;28;20678;-79
2023/08/21 04:05:32;;;;;;;22.48;13.32;;;;;;;-143.21;63.19;71748.97;5071429;28;20204;-79
2023/08/21 04:07:59;;;;;;;21.83;13.32;;;;;;;-143.21;63.46;71754.91;5072621;28;20211;-80
2023/08/21 04:10:25;;;;;;;22.25;15.07;;;;;;;-143.21;63.88;71754.91;5071295;28;20229;-78
2023/08/21 04:12:52;;;;;;;25.88;15.10;;;;;;;-143.21;63.93;71752.94;5070045;28;20197;-79
2023/08/21 04:15:20;;;;;;;27.02;14.68;;;;;;;-143.21;63.83;71748.97;5070747;28;20585;-78
2023/08/21 04:17:47;;;;;;;32.30;16.23;;;;;;;-143.21;63.46;71739.06;5070177;28;20204;-77
2023/08/21 04:20:14;;;;;;;30.35;17.35;;;;;;;-143.21;63.91;71750.94;5070520;28;20232;-78
2023/08/21 04:22:41;;;;;;;35.90;19.52;;;;;;;-143.21;63.53;71758.88;5070360;28;20199;-78
2023/08/21 04:25:08;;;;;;;35.97;19.58;;;;;;;-143.21;64.10;71762.84;5070384;28;20216;-81
2023/08/21 04:27:35;;;;;;;36.85;19.48;;;;;;;-143.21;64.54;71760.88;5070753;28;20197;-77
2023/08/21 04:30:02;;;;;;;38.78;19.55;;;;;;;-143.21;64.19;71756.91;5070456;28;20220;-76
2023/08/21 04:32:30;;;;;;;35.17;18.73;;;;;;;-143.21;64.38;71739.06;5069841;28;20212;-78
2023/08/21 04:34:57;;;;;;;31.00;18.17;;;;;;;-143.21;63.91;71731.13;5070483;28;20593;-77
2023/08/21 04:37:24;;;;;;;38.25;18.52;;;;;;;-143.21;63.99;71725.16;5070112;28;20220;-76
2023/08/21 04:39:52;;;;;;;37.00;17.60;;;;;;;-143.21;63.52;71713.28;5069989;28;20201;-76
2023/08/21 04:42:18;;;;;;;35.60;17.85;;;;;;;-143.21;63.67;71705.34;5070596;28;20220;-77
2023/08/21 04:44:45;;;;;;;32.40;18.23;;;;;;;-143.21;63.67;71705.34;5072142;28;20190;-77
2023/08/21 04:47:22;;;;;;;30.88;17.35;;;;;;;-143.21;63.29;71697.41;5074039;28;20194;-77
2023/08/21 04:49:51;;;;;;;35.72;16.55;;;;;;;-143.21;63.19;71689.47;5073922;28;20228;-77
2023/08/21 04:52:18;;;;;;;26.52;14.52;;;;;;;-143.21;62.62;71691.47;5074312;28;20201;-80
2023/08/21 04:54:45;;;;;;;25.55;12.05;;;;;;;-143.21;62.18;71679.56;5074139;28;20232;-80
2023/08/21 04:57:12;;;;;;;17.75;10.13;;;;;;;-143.21;61.54;71679.56;5073971;28;20212;-78
2023/08/21 04:59:39;;;;;;;16.08;10.35;;;;;;;-143.21;61.09;71679.56;5073453;28;20212;-79
2023/08/21 05:02:07;;;;;;;12.98;9.10;;;;;;;-143.21;60.92;71669.66;5074180;28;20237;-78
2023/08/21 05:04:35;;;;;;;19.17;10.38;;;;;;;-143.21;60.82;71667.66;5073173;28;20205;-78
2023/08/21 05:07:03;;;;;;;15.90;9.73;;;;;;;-143.21;60.85;71669.66;5073735;28;20197;-78
2023/08/21 05:09:30;;;;;;;14.55;9.60;;;;;;;-143.21;60.83;71673.63;5074301;28;20221;-78
2023/08/21 05:11:57;;;;;;;21.85;9.35;;;;;;;-143.21;60.77;71669.66;5073983;28;20197;-78
2023/08/21 05:14:24;;;;;;;17.73;9.23;;;;;;;-143.21;60.30;71661.72;5073301;28;20201;-78
2023/08/21 05:16:51;;;;;;;14.85;8.90;;;;;;;-143.21;60.60;71663.72;5074151;28;20280;-78
2023/08/21 05:19:18;;;;;;;16.70;8.68;;;;;;;-143.21;60.64;71665.69;5073667;28;20197;-80
2023/08/21 05:21:47;;;;;;;18.10;8.68;;;;;;;-143.21;60.65;71665.69;5073711;28;20205;-79
2023/08/21 05:24:18;;;;;;;19.35;9.50;;;;;;;-143.21;60.69;71661.72;5074080;28;20201;-80
2023/08/21 05:26:44;;;;;;;11.30;8.05;;;;;;;-143.21;60.05;71663.72;5073790;28;20208;-80
2023/08/21 05:29:11;;;;;;;11.88;7.68;;;;;;;-143.21;59.66;71655.78;5073825;28;20247;-80
2023/08/21 05:31:38;;;;;;;16.33;8.07;;;;;;;-143.21;59.31;71635.94;5071954;28;20206;-78
2023/08/21 05:34:05;;;;;;;13.88;8.18;;;;;;;-143.21;59.34;71628.00;5073209;28;20202;-78
2023/08/21 05:36:31;;;;;;;16.02;9.02;;;;;;;-143.21;59.01;71620.09;5073562;28;20285;-78
2023/08/21 05:38:58;;;;;;;16.80;8.60;;;;;;;-143.21;58.79;71614.13;5073348;28;20190;-77
2023/08/21 05:41:26;;;;;;;14.15;7.97;;;;;;;-143.21;58.89;71608.19;5073639;28;20198;-77
2023/08/21 05:43:53;;;;;;;14.38;8.18;;;;;;;-143.21;58.34;71596.28;5072290;28;20656;-77
2023/08/21 05:46:20;;;;;;;14.23;8.77;;;;;;;-143.21;57.92;71590.34;5073233;28;20213;-77
2023/08/21 05:48:47;;;;;;;11.93;8.85;;;;;;;-143.21;57.61;71588.38;5073383;28;20216;-77
2023/08/21 05:51:14;;;;;;;14.02;8.27;;;;;;;-143.21;57.47;71584.41;5073620;28;20193;-79
2023/08/21 05:53:41;;;;;;;17.42;8.88;;;;;;;-143.21;57.97;71594.31;5073169;28;20221;-77
2023/08/21 05:56:09;;;;;;;12.70;7.90;;;;;;;-143.21;57.93;71590.34;5072097;28;20188;-77
2023/08/21 05:58:37;;;;;;;15.98;9.07;;;;;;;-143.21;58.13;71596.28;5073067;28;20564;-78
2023/08/21 06:01:03;;;;;;;14.93;8.60;;;;;;;-143.21;58.28;71588.38;5072905;28;20196;-77
2023/08/21 06:03:30;;;;;;;14.88;8.90;;;;;;;-143.21;58.48;71582.41;5072976;28;20656;-77
2023/08/21 06:05:57;;;;;;;17.55;8.85;;;;;;;-143.21;58.66;71576.47;5073082;28;20215;-78
2023/08/21 06:08:24;;;;;;;15.10;8.90;;;;;;;-143.21;58.00;71568.53;5073298;28;20215;-78
2023/08/21 06:10:53;;;;;;;14.90;8.85;;;;;;;-143.21;57.95;71564.56;5072692;28;20221;-78
2023/08/21 06:13:29;;;;;;;15.48;9.70;;;;;;;-143.21;57.75;71554.66;5065828;28;20194;-78
2023/08/21 06:19:01;;;;;;;17.42;9.40;;;;;;;-143.21;57.68;71534.81;5003675;27;1315878;-78
2023/08/21 06:24:13;;;;;;;16.50;9.38;;;;;;;-143.21;56.49;71475.34;5040852;28;20270;-80
2023/08/21 06:26:42;;;;;;;13.45;9.18;;;;;;;-143.21;55.72;71461.47;5046099;28;20205;-81
2023/08/21 06:29:09;;;;;;;23.92;8.80;;;;;;;-143.21;55.59;71459.47;5045098;28;20199;-82
2023/08/21 06:31:35;;;;;;;17.13;9.20;;;;;;;-143.21;55.87;71467.41;5035226;28;20282;-81
2023/08/21 06:34:04;;;;;;;23.33;9.88;;;;;;;-143.21;56.45;71459.47;5042918;28;20205;-81
2023/08/21 06:36:30;;;;;;;15.00;8.95;;;;;;;-143.21;56.32;71459.47;5043320;28;20209;-83
2023/08/21 06:38:58;;;;;;;16.65;8.85;;;;;;;-143.21;56.53;71455.53;5041112;28;20327;-81
2023/08/21 06:41:25;;;;;;;18.65;8.18;;;;;;;-143.21;56.43;71449.56;5027781;28;20554;-80
2023/08/21 06:43:52;;;;;;;18.63;8.15;;;;;;;-143.21;55.62;71443.63;5047378;28;20612;-80
2023/08/21 06:46:19;;;;;;;12.57;7.72;;;;;;;-143.21;55.23;71429.75;5056943;28;20208;-79
2023/08/21 06:48:46;;;;;;;18.95;8.02;;;;;;;-143.21;55.50;71427.75;5065678;28;20687;-79
2023/08/21 06:51:14;;;;;;;13.43;7.47;;;;;;;-143.21;54.80;71417.84;5047163;28;20692;-80
2023/08/21 06:53:41;;;;;;;18.88;7.60;;;;;;;-143.21;54.94;71417.84;5047466;28;20582;-80
2023/08/21 06:56:08;;;;;;;17.35;7.55;;;;;;;-143.21;54.46;71400.00;5047067;28;20237;-80
2023/08/21 06:58:34;;;;;;;13.35;7.78;;;;;;;-143.21;53.98;71390.09;5047559;28;20233;-80
2023/08/21 07:01:02;;;;;;;20.42;7.80;;;;;;;-143.21;53.58;71376.22;5047089;28;20202;-79
2023/08/21 07:03:28;;;;;;;20.00;7.90;;;;;;;-143.21;53.31;71366.31;5047406;28;20237;-79
2023/08/21 07:05:56;;;;;;;18.50;7.43;;;;;;;-143.21;52.90;71358.38;5047347;28;20195;-80
2023/08/21 07:08:25;;;;;;;12.90;7.40;;;;;;;-143.21;52.88;71348.47;5047667;28;20218;-79
2023/08/21 07:10:53;;;;;;;11.27;6.45;;;;;;;-143.21;53.20;71334.59;5046541;28;20210;-79
2023/08/21 07:13:20;;;;;;;15.40;7.80;;;;;;;-143.21;53.07;71320.69;5047011;28;20191;-81
2023/08/21 07:15:47;;;;;;;13.32;7.47;;;;;;;-143.21;52.17;71306.81;5047097;28;20217;-79
2023/08/21 07:18:14;;;;;;;21.42;8.02;;;;;;;-143.21;52.04;71294.94;5057922;28;20240;-78
2023/08/21 07:20:41;;;;;;;16.02;7.75;;;;;;;-143.21;52.13;71290.97;5077192;28;20288;-79
2023/08/21 07:23:08;;;;;;;12.88;7.55;;;;;;;-143.21;51.19;71273.13;5075740;28;20217;-79
2023/08/21 07:25:36;;;;;;;12.68;7.47;;;;;;;-143.21;51.28;71265.19;5066325;28;20197;-78
2023/08/21 07:28:03;;;;;;;9.65;7.22;;;;;;;-143.21;50.72;71261.22;5065767;28;20189;-78
2023/08/21 07:30:30;;;;;;;12.80;7.32;;;;;;;-143.21;49.60;71247.34;5052921;28;20193;-78
2023/08/21 07:32:57;;;;;;;10.10;6.60;;;;;;;-143.21;49.35;71243.38;5052939;28;20198;-79
2023/08/21 07:35:24;;;;;;;14.82;8.02;;;;;;;-143.21;49.38;71233.47;5038252;28;20206;-79
2023/08/21 07:37:51;;;;;;;25.42;6.72;;;;;;;-143.21;49.79;71219.59;5033502;28;20219;-81
2023/08/21 07:40:17;;;;;;;15.98;6.78;;;;;;;-143.21;48.26;71201.75;5042459;28;20198;-79
2023/08/21 07:42:46;;;;;;;11.73;6.80;;;;;;;-143.21;46.98;71193.81;5073390;28;20193;-81
2023/08/21 07:45:12;;;;;;;10.05;6.47;;;;;;;-143.21;46.48;71166.06;5047772;28;20209;-81
2023/08/21 07:47:39;;;;;;;10.07;6.88;;;;;;;-143.21;45.71;71134.34;5036192;28;20203;-79
2023/08/21 07:50:07;;;;;;;11.77;6.93;;;;;;;-143.21;45.56;71102.63;5038192;28;20210;-82
2023/08/21 07:52:35;;;;;;;9.25;6.47;;;;;;;-143.21;45.14;71080.81;5049007;28;20228;-80
2023/08/21 07:55:02;;;;;;;10.73;6.55;;;;;;;-143.21;44.69;71062.97;5048544;28;20226;-81
2023/08/21 07:57:30;;;;;;;10.95;6.35;;;;;;;-143.21;44.35;71051.09;5047404;28;20225;-82
2023/08/21 07:59:58;;;;;;;8.95;6.47;;;;;;;-143.21;44.39;71031.25;5048777;28;20256;-81
2023/08/21 08:02:25;;;;;;;9.18;6.22;;;;;;;-143.21;44.62;71017.38;5046556;28;20206;-81
2023/08/21 08:04:52;;;;;;;8.95;6.63;;;;;;;-143.21;44.60;70991.63;5051980;28;20294;-81
2023/08/21 08:07:18;;;;;;;8.90;6.82;;;;;;;-143.21;44.40;70983.69;5046815;28;20624;-81
2023/08/21 08:09:46;;;;;;;12.43;6.85;;;;;;;-143.21;44.65;70957.91;5047484;28;20202;-81
2023/08/21 08:12:13;;;;;;;10.27;6.50;;;;;;;-143.21;44.01;70951.97;5050225;28;20610;-80
2023/08/21 08:14:40;;;;;;;8.27;6.95;;;;;;;-143.21;43.90;70940.06;5047326;28;20210;-80
2023/08/21 08:17:08;;;;;;;11.57;6.65;;;;;;;-143.21;43.49;70926.19;5049104;28;20206;-81
2023/08/21 08:19:35;;;;;;;8.93;6.93;;;;;;;-143.21;43.41;70920.25;5041371;28;20978;-80
2023/08/21 08:22:02;;;;;;;9.68;6.45;;;;;;;-143.21;43.37;70912.31;5049896;28;20217;-82
2023/08/21 08:24:29;;;;;;;17.40;7.22;;;;;;;-143.21;43.39;70898.44;5044384;28;20293;-82
2023/08/21 08:26:56;;;;;;;10.27;6.70;;;;;;;-143.21;42.83;70894.47;5048797;28;20202;-82
2023/08/21 08:29:23;;;;;;;11.55;6.13;;;;;;;-143.21;43.04;70892.50;5041595;28;20658;-81
2023/08/21 08:31:50;;;;;;;8.98;6.30;;;;;;;-143.21;42.62;70880.59;5048262;28;20206;-81
2023/08/21 08:34:20;;;;;;;9.48;6.93;;;;;;;-143.21;42.91;70872.66;5047979;28;20210;-82
2023/08/21 08:36:47;;;;;;;10.32;6.53;;;;;;;-143.21;42.57;70856.81;5044025;28;20212;-83
2023/08/21 08:39:14;;;;;;;12.30;7.10;;;;;;;-143.21;42.30;70844.91;5036815;28;20592;-80
2023/08/21 08:41:49;;;;;;;9.27;6.80;;;;;;;-143.21;42.19;70835.00;5046451;28;20225;-82
2023/08/21 08:44:17;;;;;;;7.97;6.72;;;;;;;-143.21;41.67;70823.13;5045790;28;20268;-83
2023/08/21 08:46:44;;;;;;;9.15;6.68;;;;;;;-143.21;41.99;70817.16;5042487;28;20230;-82
2023/08/21 08:49:12;;;;;;;8.05;7.05;;;;;;;-143.21;41.65;70805.28;5041215;28;20201;-82
2023/08/21 08:51:42;;;;;;;8.80;6.70;;;;;;;-143.21;41.87;70785.44;5044810;28;20260;-80
2023/08/21 08:54:11;;;;;;;8.52;6.57;;;;;;;-143.21;41.62;70771.56;5040829;28;20727;-80
2023/08/21 08:56:39;;;;;;;7.90;6.50;;;;;;;-143.21;40.49;70763.66;5041262;28;20676;-81
2023/08/21 08:59:08;;;;;;;9.57;6.72;;;;;;;-143.21;40.36;70751.75;5049242;28;20233;-80
2023/08/21 09:01:35;;;;;;;8.27;6.47;;;;;;;-143.21;40.33;70741.84;5046284;28;20206;-80
2023/08/21 09:04:02;;;;;;;8.13;6.22;;;;;;;-143.21;39.60;70729.94;5048529;28;20210;-80
2023/08/21 09:06:30;;;;;;;8.95;6.28;;;;;;;-143.21;39.36;70720.03;5038416;28;20206;-80
2023/08/21 09:08:58;;;;;;;9.48;6.15;;;;;;;-143.21;39.83;70716.06;5042429;28;20209;-81
2023/08/21 09:11:25;;;;;;;10.10;6.60;;;;;;;-143.21;39.36;70716.06;5046500;28;20606;-82
2023/08/21 09:13:53;;;;;;;7.75;6.47;;;;;;;-143.21;39.86;70706.16;5042066;28;20198;-82
2023/08/21 09:16:21;;;;;;;10.95;6.53;;;;;;;-143.21;38.97;70692.28;5045348;28;20587;-83
2023/08/21 09:18:49;;;;;;;10.98;6.30;;;;;;;-143.21;38.95;70680.38;5044472;28;20230;-83
2023/08/21 09:21:17;;;;;;;8.40;5.95;;;;;;;-143.21;38.64;70656.59;5038792;28;20688;-83
2023/08/21 09:23:45;;;;;;;12.35;6.03;;;;;;;-143.21;38.74;70638.75;5042406;28;20218;-82
2023/08/21 09:26:20;;;;;;;10.55;6.50;;;;;;;-143.21;38.07;70620.94;5050461;28;20213;-83
2023/08/21 09:28:47;;;;;;;9.27;6.60;;;;;;;-143.21;37.25;70613.00;5045603;28;20229;-84
2023/08/21 09:31:14;;;;;;;9.80;6.13;;;;;;;-143.21;37.46;70603.09;5035086;28;20658;-82
2023/08/21 09:33:41;;;;;;;10.43;6.32;;;;;;;-143.21;37.05;70599.13;5033877;28;20665;-82
2023/08/21 09:36:10;;;;;;;11.32;6.40;;;;;;;-143.21;36.97;70579.31;5040944;28;20202;-82
2023/08/21 09:38:39;;;;;;;8.25;6.20;;;;;;;-143.21;36.90;70563.44;5045125;28;20746;-83
2023/08/21 09:41:07;;;;;;;7.20;5.70;;;;;;;-143.21;36.51;70551.56;5044097;28;20235;-82
2023/08/21 09:43:43;;;;;;;11.88;5.88;;;;;;;-143.21;36.54;70527.75;5044675;28;20218;-82
2023/08/21 09:46:16;;;;;;;8.35;6.50;;;;;;;-143.21;36.86;70515.88;5030152;28;20703;-82
2023/08/21 09:48:45;;;;;;;10.20;6.32;;;;;;;-143.21;35.73;70494.06;5041990;28;20207;-82
2023/08/21 09:51:12;;;;;;;7.43;6.47;;;;;;;-143.21;35.86;70468.31;5039887;28;20633;-82
2023/08/21 09:53:40;;;;;;;8.73;6.22;;;;;;;-143.21;35.61;70432.63;5048029;28;20684;-82
2023/08/21 09:56:07;;;;;;;9.38;5.60;;;;;;;-143.21;34.96;70400.91;5048067;28;20221;-82
2023/08/21 09:58:36;;;;;;;8.38;5.93;;;;;;;-143.21;34.35;70385.06;5044931;28;20230;-84
2023/08/21 10:01:13;;;;;;;11.40;6.88;;;;;;;-143.21;34.06;70375.16;5048949;28;20213;-83
2023/08/21 10:03:41;;;;;;;7.32;5.82;;;;;;;-143.21;33.73;70359.28;5046723;28;20216;-83
2023/08/21 10:06:10;;;;;;;11.95;5.47;;;;;;;-143.21;33.77;70337.50;5047551;28;20205;-83
2023/08/21 10:08:39;;;;;;;7.65;5.95;;;;;;;-143.21;33.72;70319.66;5049044;28;20665;-82
2023/08/21 10:11:08;;;;;;;8.43;6.07;;;;;;;-143.21;33.60;70301.81;5049105;28;20248;-83
2023/08/21 10:13:39;;;;;;;10.77;5.80;;;;;;;-143.21;33.04;70276.03;5034182;28;20655;-84
2023/08/21 10:16:06;;;;;;;12.30;6.15;;;;;;;-143.21;32.81;70258.22;5050701;28;20194;-82
2023/08/21 10:18:35;;;;;;;8.55;5.80;;;;;;;-143.21;32.53;70240.38;5048863;28;20250;-83
2023/08/21 10:21:15;;;;;;;13.35;5.65;;;;;;;-143.21;32.04;70248.28;5037977;28;20238;-84
2023/08/21 10:23:42;;;;;;;9.18;5.68;;;;;;;-143.21;32.52;70222.53;5046530;28;20653;-83
2023/08/21 10:26:11;;;;;;;6.85;5.50;;;;;;;-143.21;31.78;70202.72;5050338;28;20281;-83
2023/08/21 10:29:15;;;;;;;9.02;5.75;;;;;;;-143.21;31.20;70180.91;5040840;28;20190;-82
2023/08/21 10:31:43;;;;;;;8.75;6.20;;;;;;;-143.21;31.57;70157.13;5012412;28;20283;-84
2023/08/21 10:34:12;;;;;;;10.25;6.30;;;;;;;-143.21;31.01;70155.16;5043976;28;20232;-84
2023/08/21 10:37:12;;;;;;;8.82;5.22;;;;;;;-143.21;30.80;70149.19;5044817;28;20200;-86
2023/08/21 10:39:42;;;;;;;7.60;5.20;;;;;;;-143.21;30.57;70119.47;5041423;28;20431;-86
2023/08/21 10:42:13;;;;;;;8.13;5.57;;;;;;;-143.21;30.67;70119.47;5045326;28;20208;-83
2023/08/21 10:44:59;;;;;;;11.13;5.00;;;;;;;-143.21;30.94;70135.31;5052189;28;20752;-84
2023/08/21 10:47:33;;;;;;;6.70;5.18;;;;;;;-143.21;30.65;70129.38;5041770;28;20198;-83
2023/08/21 10:50:01;;;;;;;9.23;5.55;;;;;;;-143.21;30.33;70113.53;5046118;28;20197;-81
2023/08/21 10:52:30;;;;;;;9.52;5.03;;;;;;;-143.21;30.12;70079.84;5045296;28;20202;-85
2023/08/21 10:54:58;;;;;;;7.38;5.05;;;;;;;-143.21;30.18;70073.91;5046822;28;20225;-84
2023/08/21 10:57:26;;;;;;;8.25;5.18;;;;;;;-143.21;29.81;70038.22;5047623;28;20202;-83
2023/08/21 10:59:56;;;;;;;7.93;5.15;;;;;;;-143.21;29.60;70008.50;5050670;28;20214;-83
2023/08/21 11:02:24;;;;;;;6.90;5.05;;;;;;;-143.21;29.07;70036.25;5048219;28;20198;-82
2023/08/21 11:04:51;;;;;;;9.32;5.30;;;;;;;-143.21;29.72;70018.41;5049012;28;20202;-82
2023/08/21 11:07:18;;;;;;;5.28;4.72;;;;;;;-143.21;29.67;70018.41;5051139;28;20210;-83
2023/08/21 11:09:45;;;;;;;5.70;5.07;;;;;;;-143.21;29.02;70060.03;5044498;28;20641;-83
2023/08/21 11:12:14;;;;;;;8.32;4.70;;;;;;;-143.21;29.33;70095.69;5051537;28;20205;-82
2023/08/21 11:14:41;;;;;;;10.00;5.47;;;;;;;-143.21;29.20;70131.38;5048569;28;20959;-83
2023/08/21 11:17:10;;;;;;;5.32;4.80;;;;;;;-143.21;29.38;70111.53;5047443;28;20224;-82
2023/08/21 11:19:38;;;;;;;7.97;4.88;;;;;;;-143.21;29.18;70093.72;5035023;28;20214;-82